Ever Ursula — 3FCB9 — position and weather

sailwx.info

Track history (hours):
 
Tides and Currents Weather Stations Pressure Air Temp Water Temp Dewpoint Dewpoint Depression Visibility Wind Speed Wind Dir Waves Ship Positions

Ever Ursula

Last reported at 2014-Oct-21 07:32 UTC. Time now 2014-Oct-22 13:54 UTC.
Position N 25°40' E 120°44'.

Type: Ship (hazmat cat D). MMSI: 357737000.

Date/timePositionNaut miles runAvg speedWind from/ knotsBaromVisibWave heightAir tempDewpointWater temp
2014-Oct-21 07:32N 25°40' E 120°44'1414.4
2014-Oct-21 06:33N 25°29' E 120°33'4615.2
2014-Oct-21 03:33N 24°57' E 119°58'1614.6
2014-Oct-21 02:28N 24°45' E 119°46'1313.9
2014-Oct-21 01:33N 24°36' E 119°37'1414.5
2014-Oct-21 00:33N 24°26' E 119°25'1514.5
2014-Oct-20 23:33N 24°16' E 119°14'1313.4
2014-Oct-20 22:33N 24°07' E 119°03'1514.8
2014-Oct-20 21:33N 23°58' E 118°50'1514.5
2014-Oct-20 20:31N 23°50' E 118°36'1414.4
2014-Oct-20 19:33N 23°42' E 118°23'3313.8
2014-Oct-20 17:09N 23°25' E 117°53'813.5
2014-Oct-20 16:33N 23°21' E 117°45'1413.6
2014-Oct-20 15:32N 23°13' E 117°33'3414.6
2014-Oct-20 13:11N 22°55' E 117°01'1015.1
2014-Oct-20 12:33N 22°50' E 116°52'1514.8
2014-Oct-20 11:33N 22°42' E 116°39'2814.0
2014-Oct-20 09:32N 22°27' E 116°13'  
2014-Oct-15 00:33N 22°19' E 114°06'  
2014-Oct-12 18:33N 23°24' E 117°49'1514.5
2014-Oct-12 17:32N 23°31' E 118°03'1514.4
2014-Oct-12 16:31N 23°39' E 118°16'1414.2
2014-Oct-12 15:33N 23°47' E 118°29'1414.2
2014-Oct-12 14:33N 23°55' E 118°42'1413.6
2014-Oct-12 13:33N 24°02' E 118°54'1514.2
2014-Oct-12 12:30N 24°12' E 119°07'1515.0
2014-Oct-12 11:31N 24°23' E 119°18'1414.7
2014-Oct-12 10:33N 24°32' E 119°29'1615.8
2014-Oct-12 09:33N 24°44' E 119°41'1514.6
2014-Oct-12 08:33N 24°54' E 119°52'29516.1
2014-Oct-11 14:15N 29°13' E 122°31'1014.5
2014-Oct-11 13:33N 29°23' E 122°30'1514.8
2014-Oct-11 12:33N 29°38' E 122°28'5 5.4
2014-Oct-11 11:33N 29°41' E 122°23'0 0.1
2014-Oct-11 10:33N 29°41' E 122°23'1010.0
2014-Oct-11 09:33N 29°48' E 122°15'1111.3
2014-Oct-11 08:34N 29°55' E 122°04'  
Track history (hours):
 
Tides and Currents Weather Stations Pressure Air Temp Water Temp Dewpoint Dewpoint Depression Visibility Wind Speed Wind Dir Waves Ship Positions

Ever Ursula

Last reported at 2014-Oct-21 07:32 UTC. Time now 2014-Oct-22 13:54 UTC.
Position N 25°40' E 120°44'.

Type: Ship (hazmat cat D). MMSI: 357737000.

Date/timePositionNaut miles runAvg speedWind from/ knotsBaromVisibWave heightAir tempDewpointWater temp
2014-Oct-21 07:32N 25°40' E 120°44'1414.4
2014-Oct-21 06:33N 25°29' E 120°33'4615.2
2014-Oct-21 03:33N 24°57' E 119°58'1614.6
2014-Oct-21 02:28N 24°45' E 119°46'1313.9
2014-Oct-21 01:33N 24°36' E 119°37'1414.5
2014-Oct-21 00:33N 24°26' E 119°25'1514.5
2014-Oct-20 23:33N 24°16' E 119°14'1313.4
2014-Oct-20 22:33N 24°07' E 119°03'1514.8
2014-Oct-20 21:33N 23°58' E 118°50'1514.5
2014-Oct-20 20:31N 23°50' E 118°36'1414.4
2014-Oct-20 19:33N 23°42' E 118°23'3313.8
2014-Oct-20 17:09N 23°25' E 117°53'813.5
2014-Oct-20 16:33N 23°21' E 117°45'1413.6
2014-Oct-20 15:32N 23°13' E 117°33'3414.6
2014-Oct-20 13:11N 22°55' E 117°01'1015.1
2014-Oct-20 12:33N 22°50' E 116°52'1514.8
2014-Oct-20 11:33N 22°42' E 116°39'2814.0
2014-Oct-20 09:32N 22°27' E 116°13'  
2014-Oct-15 00:33N 22°19' E 114°06'  
2014-Oct-12 18:33N 23°24' E 117°49'1514.5
2014-Oct-12 17:32N 23°31' E 118°03'1514.4
2014-Oct-12 16:31N 23°39' E 118°16'1414.2
2014-Oct-12 15:33N 23°47' E 118°29'1414.2
2014-Oct-12 14:33N 23°55' E 118°42'1413.6
2014-Oct-12 13:33N 24°02' E 118°54'1514.2
2014-Oct-12 12:30N 24°12' E 119°07'1515.0
2014-Oct-12 11:31N 24°23' E 119°18'1414.7
2014-Oct-12 10:33N 24°32' E 119°29'1615.8
2014-Oct-12 09:33N 24°44' E 119°41'1514.6
2014-Oct-12 08:33N 24°54' E 119°52'29516.1
2014-Oct-11 14:15N 29°13' E 122°31'1014.5
2014-Oct-11 13:33N 29°23' E 122°30'1514.8
2014-Oct-11 12:33N 29°38' E 122°28'5 5.4
2014-Oct-11 11:33N 29°41' E 122°23'0 0.1
2014-Oct-11 10:33N 29°41' E 122°23'1010.0
2014-Oct-11 09:33N 29°48' E 122°15'1111.3
2014-Oct-11 08:34N 29°55' E 122°04'  

Dump ship's entire track history